Time,TemperatureF,DewpointF,PressureIn,WindDirection,WindDirectionDegrees,WindSpeedMPH,WindSpeedGustMPH,Humidity,HourlyPrecipIn,Conditions,Clouds,dailyrainin,SoftwareType,DateUTC
2013-02-10 00:02:00,39.2,35.4,29.70,SE,144,14.0,22.0,86,0.00,,,0.00,meteohub,2013-02-10 06:02:00,
2013-02-10 00:07:00,39.0,35.2,29.69,SE,146,12.0,22.0,86,0.00,,,0.00,meteohub,2013-02-10 06:07:00,
2013-02-10 00:12:00,39.0,35.4,29.69,SE,135,15.0,22.0,87,0.00,,,0.00,meteohub,2013-02-10 06:12:00,
2013-02-10 00:17:00,38.8,35.2,29.68,SSE,153,16.0,22.0,87,0.00,,,0.00,meteohub,2013-02-10 06:17:00,
2013-02-10 00:22:00,38.8,35.6,29.68,SE,128,15.0,20.0,88,0.00,,,0.00,meteohub,2013-02-10 06:22:00,
2013-02-10 00:27:00,38.8,35.6,29.68,SE,142,19.0,20.0,88,0.00,,,0.00,meteohub,2013-02-10 06:27:00,
2013-02-10 00:32:00,38.8,35.6,29.68,ESE,115,14.0,22.0,88,0.00,,,0.00,meteohub,2013-02-10 06:32:00,
2013-02-10 00:37:00,38.8,35.6,29.68,SSE,167,13.0,22.0,88,0.00,,,0.00,meteohub,2013-02-10 06:37:00,
2013-02-10 00:42:00,38.8,35.6,29.68,SE,136,15.0,23.0,88,0.00,,,0.00,meteohub,2013-02-10 06:42:00,
2013-02-10 00:47:00,38.8,36.0,29.67,SSE,148,19.0,25.0,89,0.00,,,0.00,meteohub,2013-02-10 06:47:00,
2013-02-10 00:52:00,38.8,36.0,29.67,SE,137,18.0,29.0,89,0.00,,,0.00,meteohub,2013-02-10 06:52:00,
2013-02-10 00:57:00,38.7,36.0,29.65,SE,128,23.0,29.0,90,0.00,,,0.00,meteohub,2013-02-10 06:57:00,
2013-02-10 01:02:00,38.7,36.0,29.67,SE,124,17.0,27.0,90,0.00,,,0.00,meteohub,2013-02-10 07:02:00,
2013-02-10 01:07:00,38.5,36.1,29.68,SE,139,22.0,27.0,91,0.00,,,0.00,meteohub,2013-02-10 07:07:00,
2013-02-10 01:12:00,38.5,36.1,29.65,ESE,121,16.0,29.0,91,0.00,,,0.00,meteohub,2013-02-10 07:12:00,
2013-02-10 01:17:00,38.3,36.1,29.65,SE,132,16.0,29.0,92,0.00,,,0.00,meteohub,2013-02-10 07:17:00,
2013-02-10 01:22:00,38.1,36.0,29.63,SE,132,20.0,29.0,92,0.00,,,0.00,meteohub,2013-02-10 07:22:00,
2013-02-10 01:27:00,38.1,36.3,29.62,ESE,119,14.0,23.0,93,0.00,,,0.00,meteohub,2013-02-10 07:27:00,
2013-02-10 01:32:00,38.1,36.3,29.61,SE,127,16.0,23.0,93,0.00,,,0.00,meteohub,2013-02-10 07:32:00,
2013-02-10 01:37:00,38.1,36.3,29.61,SE,138,19.0,22.0,93,0.00,,,0.00,meteohub,2013-02-10 07:37:00,
2013-02-10 01:42:00,38.1,36.3,29.61,ESE,123,16.0,22.0,93,0.01,,,0.01,meteohub,2013-02-10 07:42:00,
2013-02-10 01:47:00,38.1,36.3,29.63,SE,132,18.0,22.0,93,0.01,,,0.01,meteohub,2013-02-10 07:47:00,
2013-02-10 01:52:00,38.1,36.5,29.63,SE,146,19.0,25.0,94,0.01,,,0.01,meteohub,2013-02-10 07:52:00,
2013-02-10 01:57:00,38.1,36.5,29.62,SE,141,20.0,27.0,94,0.01,,,0.01,meteohub,2013-02-10 07:57:00,
2013-02-10 02:02:00,38.1,36.5,29.61,ESE,122,12.0,27.0,94,0.01,,,0.01,meteohub,2013-02-10 08:02:00,
2013-02-10 02:07:00,38.1,36.5,29.61,SE,127,18.0,27.0,94,0.01,,,0.01,meteohub,2013-02-10 08:07:00,
2013-02-10 02:12:00,38.1,36.5,29.60,SE,143,18.0,27.0,94,0.01,,,0.01,meteohub,2013-02-10 08:12:00,
2013-02-10 02:17:00,38.1,36.5,29.59,SE,140,21.0,27.0,94,0.01,,,0.01,meteohub,2013-02-10 08:17:00,
2013-02-10 02:22:00,38.1,36.5,29.58,ESE,121,20.0,27.0,94,0.01,,,0.01,meteohub,2013-02-10 08:22:00,
2013-02-10 02:27:00,38.1,36.9,29.58,ESE,123,16.0,27.0,95,0.01,,,0.01,meteohub,2013-02-10 08:27:00,
2013-02-10 02:32:00,38.1,36.9,29.57,ESE,122,19.0,27.0,95,0.01,,,0.01,meteohub,2013-02-10 08:32:00,
2013-02-10 02:37:00,38.1,36.9,29.57,SE,131,19.0,27.0,95,0.01,,,0.01,meteohub,2013-02-10 08:37:00,
2013-02-10 02:42:00,38.1,36.9,29.57,ESE,107,16.0,27.0,95,0.00,,,0.01,meteohub,2013-02-10 08:42:00,
2013-02-10 02:47:00,37.9,36.7,29.57,SE,126,15.0,27.0,95,0.00,,,0.01,meteohub,2013-02-10 08:47:00,
2013-02-10 02:52:00,38.1,36.9,29.56,SE,124,20.0,26.0,95,0.01,,,0.02,meteohub,2013-02-10 08:52:00,
2013-02-10 02:57:00,38.1,37.0,29.55,SE,141,18.0,27.0,96,0.01,,,0.02,meteohub,2013-02-10 08:57:00,
2013-02-10 03:02:00,38.1,37.0,29.54,ESE,116,20.0,27.0,96,0.01,,,0.02,meteohub,2013-02-10 09:02:00,
2013-02-10 03:07:00,38.3,37.2,29.52,SE,129,20.0,27.0,96,0.01,,,0.02,meteohub,2013-02-10 09:07:00,
2013-02-10 03:12:00,38.3,37.2,29.52,SE,144,21.0,28.0,96,0.01,,,0.02,meteohub,2013-02-10 09:12:00,
2013-02-10 03:17:00,38.5,37.4,29.52,SE,139,20.0,30.0,96,0.01,,,0.02,meteohub,2013-02-10 09:17:00,
2013-02-10 03:22:00,38.7,37.6,29.51,SE,135,22.0,30.0,96,0.01,,,0.02,meteohub,2013-02-10 09:22:00,
2013-02-10 03:27:00,38.7,37.6,29.51,ESE,112,25.0,30.0,96,0.01,,,0.02,meteohub,2013-02-10 09:27:00,
2013-02-10 03:32:00,38.8,37.8,29.49,SE,128,20.0,28.0,96,0.01,,,0.02,meteohub,2013-02-10 09:32:00,
2013-02-10 03:37:00,38.8,37.8,29.48,SE,137,18.0,32.0,96,0.01,,,0.02,meteohub,2013-02-10 09:37:00,
2013-02-10 03:42:00,39.0,37.9,29.47,SE,136,26.0,35.0,96,0.01,,,0.02,meteohub,2013-02-10 09:42:00,
2013-02-10 03:47:00,39.2,38.1,29.48,SE,140,15.0,35.0,96,0.01,,,0.02,meteohub,2013-02-10 09:47:00,
2013-02-10 03:52:00,39.4,38.7,29.48,SE,131,23.0,35.0,97,0.00,,,0.02,meteohub,2013-02-10 09:52:00,
2013-02-10 03:57:00,39.4,38.7,29.48,SE,130,23.0,30.0,97,0.00,,,0.02,meteohub,2013-02-10 09:57:00,
2013-02-10 04:02:00,39.6,38.8,29.48,SSE,150,14.0,31.0,97,0.00,,,0.02,meteohub,2013-02-10 10:02:00,
2013-02-10 04:07:00,39.7,39.0,29.47,SE,135,32.0,32.0,97,0.00,,,0.02,meteohub,2013-02-10 10:07:00,
2013-02-10 04:12:00,39.7,39.0,29.46,SE,133,24.0,34.0,97,0.00,,,0.02,meteohub,2013-02-10 10:12:00,
2013-02-10 04:17:00,39.7,39.0,29.45,SE,127,30.0,34.0,97,0.00,,,0.02,meteohub,2013-02-10 10:17:00,
2013-02-10 04:22:00,39.9,39.2,29.44,SE,136,20.0,35.0,97,0.00,,,0.02,meteohub,2013-02-10 10:22:00,
2013-02-10 04:27:00,39.9,39.2,29.43,ESE,120,35.0,35.0,97,0.00,,,0.02,meteohub,2013-02-10 10:27:00,
2013-02-10 04:32:00,39.9,39.2,29.43,SE,132,22.0,35.0,97,0.00,,,0.02,meteohub,2013-02-10 10:32:00,
2013-02-10 04:37:00,40.1,39.4,29.43,SSE,157,24.0,35.0,97,0.00,,,0.02,meteohub,2013-02-10 10:37:00,
2013-02-10 04:42:00,40.3,39.6,29.43,SE,146,19.0,35.0,97,0.00,,,0.02,meteohub,2013-02-10 10:42:00,
2013-02-10 04:47:00,40.3,39.6,29.42,East,98,28.0,34.0,97,0.00,,,0.02,meteohub,2013-02-10 10:47:00,
2013-02-10 04:52:00,40.3,39.6,29.42,SE,140,26.0,34.0,97,0.00,,,0.02,meteohub,2013-02-10 10:52:00,
2013-02-10 04:57:00,40.3,39.6,29.42,SSE,167,25.0,34.0,97,0.00,,,0.02,meteohub,2013-02-10 10:57:00,
2013-02-10 05:02:00,40.3,39.6,29.41,SE,145,22.0,34.0,97,0.00,,,0.02,meteohub,2013-02-10 11:02:00,
2013-02-10 05:07:00,40.5,39.7,29.41,SE,137,23.0,32.0,97,0.00,,,0.02,meteohub,2013-02-10 11:07:00,
2013-02-10 05:12:00,40.6,39.9,29.41,SE,144,20.0,35.0,97,0.00,,,0.02,meteohub,2013-02-10 11:12:00,
2013-02-10 05:17:00,40.8,40.1,29.41,SE,142,29.0,35.0,97,0.00,,,0.02,meteohub,2013-02-10 11:17:00,
2013-02-10 05:22:00,40.8,40.1,29.41,ESE,119,27.0,36.0,97,0.00,,,0.02,meteohub,2013-02-10 11:22:00,
2013-02-10 05:27:00,40.8,40.1,29.41,ESE,107,22.0,36.0,97,0.00,,,0.02,meteohub,2013-02-10 11:27:00,
2013-02-10 05:32:00,41.0,40.3,29.41,ESE,120,15.0,33.0,97,0.00,,,0.02,meteohub,2013-02-10 11:32:00,
2013-02-10 05:37:00,41.2,40.5,29.42,SE,145,13.0,33.0,97,0.00,,,0.02,meteohub,2013-02-10 11:37:00,
2013-02-10 05:42:00,41.2,40.5,29.41,SE,141,28.0,31.0,97,0.00,,,0.02,meteohub,2013-02-10 11:42:00,
2013-02-10 05:47:00,41.2,40.5,29.39,SE,129,24.0,30.0,97,0.00,,,0.02,meteohub,2013-02-10 11:47:00,
2013-02-10 05:52:00,41.2,40.5,29.38,SE,142,24.0,35.0,97,0.00,,,0.02,meteohub,2013-02-10 11:52:00,
2013-02-10 05:57:00,41.2,40.5,29.39,ESE,119,20.0,35.0,97,0.00,,,0.02,meteohub,2013-02-10 11:57:00,
2013-02-10 06:02:00,41.4,40.6,29.36,SSE,147,18.0,35.0,97,0.00,,,0.02,meteohub,2013-02-10 12:02:00,
2013-02-10 06:07:00,41.5,40.8,29.39,SE,134,16.0,32.0,97,0.00,,,0.02,meteohub,2013-02-10 12:07:00,
2013-02-10 06:12:00,41.5,40.8,29.39,ESE,119,18.0,32.0,97,0.00,,,0.02,meteohub,2013-02-10 12:12:00,
2013-02-10 06:17:00,41.5,40.8,29.39,South,179,16.0,33.0,97,0.00,,,0.02,meteohub,2013-02-10 12:17:00,
2013-02-10 06:22:00,41.7,41.0,29.39,SE,131,17.0,33.0,97,0.00,,,0.02,meteohub,2013-02-10 12:22:00,
2013-02-10 06:27:00,41.9,41.2,29.39,ESE,112,21.0,33.0,97,0.00,,,0.02,meteohub,2013-02-10 12:27:00,
2013-02-10 06:32:00,42.1,41.4,29.39,SE,126,23.0,29.0,97,0.00,,,0.02,meteohub,2013-02-10 12:32:00,
2013-02-10 06:37:00,42.1,41.4,29.39,SE,124,16.0,27.0,97,0.00,,,0.02,meteohub,2013-02-10 12:37:00,
2013-02-10 06:42:00,42.1,41.4,29.38,SSE,155,11.0,27.0,97,0.00,,,0.02,meteohub,2013-02-10 12:42:00,
2013-02-10 06:47:00,42.3,41.5,29.38,SE,135,12.0,26.0,97,0.00,,,0.02,meteohub,2013-02-10 12:47:00,
2013-02-10 06:52:00,42.3,41.5,29.37,ESE,117,14.0,26.0,97,0.00,,,0.02,meteohub,2013-02-10 12:52:00,
2013-02-10 06:57:00,42.1,41.4,29.37,SE,144,17.0,26.0,97,0.00,,,0.02,meteohub,2013-02-10 12:57:00,
2013-02-10 07:02:00,41.9,41.2,29.37,SE,132,12.0,25.0,97,0.00,,,0.02,meteohub,2013-02-10 13:02:00,
2013-02-10 07:07:00,41.7,41.0,29.36,ESE,121,21.0,24.0,97,0.00,,,0.02,meteohub,2013-02-10 13:07:00,
2013-02-10 07:12:00,41.9,40.8,29.36,SSE,152,17.0,27.0,96,0.00,,,0.02,meteohub,2013-02-10 13:12:00,
2013-02-10 07:17:00,42.1,41.0,29.36,SE,144,21.0,28.0,96,0.00,,,0.02,meteohub,2013-02-10 13:17:00,
2013-02-10 07:22:00,42.1,41.0,29.35,SE,138,23.0,31.0,96,0.00,,,0.02,meteohub,2013-02-10 13:22:00,
2013-02-10 07:27:00,42.3,41.2,29.35,SE,128,19.0,31.0,96,0.00,,,0.02,meteohub,2013-02-10 13:27:00,
2013-02-10 07:32:00,42.3,41.2,29.34,SE,136,20.0,31.0,96,0.00,,,0.02,meteohub,2013-02-10 13:32:00,
2013-02-10 07:37:00,42.3,41.2,29.34,SSE,151,19.0,33.0,96,0.00,,,0.02,meteohub,2013-02-10 13:37:00,
2013-02-10 07:42:00,42.3,41.0,29.34,SE,126,27.0,33.0,95,0.00,,,0.02,meteohub,2013-02-10 13:42:00,
2013-02-10 07:47:00,42.3,41.0,29.34,SE,140,20.0,33.0,95,0.00,,,0.02,meteohub,2013-02-10 13:47:00,
2013-02-10 07:52:00,42.4,40.8,29.34,South,178,19.0,31.0,94,0.00,,,0.02,meteohub,2013-02-10 13:52:00,
2013-02-10 07:57:00,42.6,41.0,29.34,South,180,19.0,31.0,94,0.00,,,0.02,meteohub,2013-02-10 13:57:00,
2013-02-10 08:02:00,43.0,41.2,29.34,SSW,206,17.0,26.0,93,0.00,,,0.02,meteohub,2013-02-10 14:02:00,
2013-02-10 08:07:00,43.3,41.2,29.34,South,186,14.0,24.0,92,0.00,,,0.02,meteohub,2013-02-10 14:07:00,
2013-02-10 08:12:00,43.3,41.2,29.33,South,171,21.0,24.0,92,0.00,,,0.02,meteohub,2013-02-10 14:12:00,
2013-02-10 08:17:00,43.3,41.2,29.33,SSW,201,14.0,31.0,92,0.00,,,0.02,meteohub,2013-02-10 14:17:00,
2013-02-10 08:22:00,43.5,41.4,29.32,South,191,17.0,31.0,92,0.00,,,0.02,meteohub,2013-02-10 14:22:00,
2013-02-10 08:27:00,43.9,41.2,29.31,South,169,13.0,26.0,90,0.00,,,0.02,meteohub,2013-02-10 14:27:00,
2013-02-10 08:32:00,44.1,41.4,29.32,East,98,23.0,28.0,90,0.00,,,0.02,meteohub,2013-02-10 14:32:00,
2013-02-10 08:37:00,44.4,41.7,29.31,ESE,122,18.0,31.0,90,0.00,,,0.02,meteohub,2013-02-10 14:37:00,
2013-02-10 08:42:00,45.1,42.1,29.31,South,169,28.0,31.0,89,0.00,,,0.02,meteohub,2013-02-10 14:42:00,
2013-02-10 08:47:00,45.7,41.7,29.30,South,171,23.0,33.0,86,0.00,,,0.02,meteohub,2013-02-10 14:47:00,
2013-02-10 08:52:00,45.5,40.6,29.30,South,185,29.0,33.0,83,0.00,,,0.02,meteohub,2013-02-10 14:52:00,
2013-02-10 08:57:00,44.8,39.0,29.30,SE,140,31.0,37.0,80,0.00,,,0.02,meteohub,2013-02-10 14:57:00,
2013-02-10 09:03:00,44.1,37.9,29.31,SSW,208,21.0,37.0,79,0.00,,,0.02,meteohub,2013-02-10 15:03:00,
2013-02-10 09:08:00,43.9,38.1,29.31,SSW,194,26.0,37.0,80,0.00,,,0.02,meteohub,2013-02-10 15:08:00,
2013-02-10 09:13:00,42.6,36.5,29.31,SSW,203,24.0,38.0,79,0.00,,,0.02,meteohub,2013-02-10 15:13:00,
2013-02-10 09:18:00,42.4,36.3,29.31,SSW,198,20.0,39.0,79,0.00,,,0.02,meteohub,2013-02-10 15:18:00,
2013-02-10 09:23:00,42.3,36.9,29.31,SSW,202,26.0,39.0,81,0.00,,,0.02,meteohub,2013-02-10 15:23:00,
2013-02-10 09:28:00,41.5,35.8,29.31,SSW,207,26.0,38.0,80,0.00,,,0.02,meteohub,2013-02-10 15:28:00,
2013-02-10 09:34:00,40.8,36.1,29.31,South,186,13.0,39.0,83,0.00,,,0.02,meteohub,2013-02-10 15:34:00,
2013-02-10 09:39:00,40.6,35.6,29.31,SSW,198,21.0,39.0,82,0.00,,,0.02,meteohub,2013-02-10 15:39:00,
2013-02-10 09:44:00,39.7,34.7,29.31,SW,225,24.0,39.0,82,0.00,,,0.02,meteohub,2013-02-10 15:44:00,
2013-02-10 09:49:00,39.6,34.9,29.31,SW,214,23.0,39.0,83,0.00,,,0.02,meteohub,2013-02-10 15:49:00,
2013-02-10 09:54:00,39.6,35.1,29.31,SW,215,16.0,39.0,84,0.00,,,0.02,meteohub,2013-02-10 15:54:00,
2013-02-10 09:59:00,39.0,34.0,29.31,SSW,197,24.0,34.0,82,0.00,,,0.02,meteohub,2013-02-10 15:59:00,
2013-02-10 10:04:00,38.3,33.3,29.31,SW,221,16.0,32.0,82,0.00,,,0.02,meteohub,2013-02-10 16:04:00,
2013-02-10 10:09:00,37.9,32.9,29.31,SW,221,16.0,32.0,82,0.00,,,0.02,meteohub,2013-02-10 16:09:00,
2013-02-10 10:15:00,37.8,32.5,29.31,SW,232,26.0,32.0,81,0.00,,,0.02,meteohub,2013-02-10 16:15:00,
2013-02-10 10:20:00,37.6,32.5,29.31,SSW,199,15.0,31.0,82,0.00,,,0.02,meteohub,2013-02-10 16:20:00,
2013-02-10 10:25:00,37.6,32.5,29.31,SSW,198,18.0,32.0,82,0.00,,,0.02,meteohub,2013-02-10 16:25:00,
2013-02-10 10:30:00,37.6,32.9,29.31,SW,219,12.0,32.0,83,0.00,,,0.02,meteohub,2013-02-10 16:30:00,
2013-02-10 10:35:00,37.6,32.9,29.31,SW,215,16.0,29.0,83,0.00,,,0.02,meteohub,2013-02-10 16:35:00,
2013-02-10 10:40:00,37.8,33.1,29.31,SSW,209,12.0,32.0,83,0.00,,,0.02,meteohub,2013-02-10 16:40:00,
2013-02-10 10:45:00,37.0,32.0,29.31,SW,234,23.0,32.0,82,0.00,,,0.02,meteohub,2013-02-10 16:45:00,
2013-02-10 10:50:00,36.9,31.8,29.31,SW,220,16.0,32.0,82,0.00,,,0.02,meteohub,2013-02-10 16:50:00,
2013-02-10 10:55:00,36.9,31.6,29.31,SW,229,16.0,30.0,81,0.00,,,0.02,meteohub,2013-02-10 16:55:00,
2013-02-10 11:00:00,36.9,31.6,29.31,SW,215,24.0,30.0,81,0.00,,,0.02,meteohub,2013-02-10 17:00:00,
2013-02-10 11:06:00,36.9,31.3,29.31,SW,225,16.0,31.0,80,0.00,,,0.02,meteohub,2013-02-10 17:06:00,
2013-02-10 11:11:00,37.0,31.8,29.31,South,190,28.0,31.0,81,0.00,,,0.02,meteohub,2013-02-10 17:11:00,
2013-02-10 11:16:00,36.9,31.3,29.31,SSW,209,24.0,32.0,80,0.00,,,0.02,meteohub,2013-02-10 17:16:00,
2013-02-10 11:21:00,37.0,32.0,29.31,SSW,210,19.0,34.0,82,0.00,,,0.02,meteohub,2013-02-10 17:21:00,
2013-02-10 11:26:00,36.9,31.6,29.31,West,260,23.0,34.0,81,0.00,,,0.02,meteohub,2013-02-10 17:26:00,
2013-02-10 11:31:00,36.7,31.6,29.31,SSW,201,27.0,35.0,82,0.00,,,0.02,meteohub,2013-02-10 17:31:00,
2013-02-10 11:36:00,36.1,31.1,29.31,South,173,19.0,35.0,82,0.00,,,0.02,meteohub,2013-02-10 17:36:00,
2013-02-10 11:41:00,36.3,31.6,29.31,South,190,19.0,35.0,83,0.00,,,0.02,meteohub,2013-02-10 17:41:00,
2013-02-10 11:46:00,36.5,32.2,29.31,South,185,16.0,35.0,84,0.00,,,0.02,meteohub,2013-02-10 17:46:00,
2013-02-10 11:51:00,36.5,32.2,29.31,SSW,209,21.0,35.0,84,0.00,,,0.02,meteohub,2013-02-10 17:51:00,
2013-02-10 11:56:00,36.5,32.2,29.31,SW,234,22.0,40.0,84,0.00,,,0.02,meteohub,2013-02-10 17:56:00,
2013-02-10 12:02:00,36.7,32.5,29.31,SSW,212,18.0,40.0,85,0.00,,,0.02,meteohub,2013-02-10 18:02:00,
2013-02-10 12:07:00,36.7,32.5,29.31,WSW,238,14.0,36.0,85,0.00,,,0.02,meteohub,2013-02-10 18:07:00,
2013-02-10 12:12:00,36.7,32.5,29.31,SSW,202,13.0,34.0,85,0.00,,,0.02,meteohub,2013-02-10 18:12:00,
2013-02-10 12:17:00,36.7,32.9,29.31,SSW,202,22.0,31.0,86,0.00,,,0.02,meteohub,2013-02-10 18:17:00,
2013-02-10 12:22:00,36.9,33.1,29.30,South,182,25.0,34.0,86,0.00,,,0.02,meteohub,2013-02-10 18:22:00,
2013-02-10 12:27:00,36.9,33.1,29.30,SSW,198,20.0,36.0,86,0.00,,,0.02,meteohub,2013-02-10 18:27:00,
2013-02-10 12:32:00,37.0,33.3,29.30,SSW,200,14.0,36.0,86,0.00,,,0.02,meteohub,2013-02-10 18:32:00,
2013-02-10 12:37:00,37.0,33.6,29.30,SW,214,20.0,36.0,87,0.00,,,0.02,meteohub,2013-02-10 18:37:00,
2013-02-10 12:42:00,37.2,33.8,29.29,SSW,211,28.0,32.0,87,0.00,,,0.02,meteohub,2013-02-10 18:42:00,
2013-02-10 12:47:00,37.6,34.0,29.29,SW,234,15.0,31.0,87,0.00,,,0.02,meteohub,2013-02-10 18:47:00,
2013-02-10 12:52:00,37.6,34.3,29.29,SW,226,25.0,31.0,88,0.00,,,0.02,meteohub,2013-02-10 18:52:00,
2013-02-10 12:57:00,37.6,34.7,29.29,SSW,198,16.0,39.0,89,0.00,,,0.02,meteohub,2013-02-10 18:57:00,
2013-02-10 13:02:00,37.0,34.7,29.30,SW,236,13.0,39.0,91,0.00,,,0.02,meteohub,2013-02-10 19:02:00,
2013-02-10 13:07:00,36.5,34.2,29.29,SSW,213,18.0,39.0,91,0.00,,,0.02,meteohub,2013-02-10 19:07:00,
2013-02-10 13:12:00,36.3,34.2,29.29,SSW,209,24.0,32.0,92,0.00,,,0.02,meteohub,2013-02-10 19:12:00,
2013-02-10 13:17:00,36.3,34.5,29.29,SW,223,16.0,32.0,93,0.00,,,0.02,meteohub,2013-02-10 19:17:00,
2013-02-10 13:22:00,36.3,34.5,29.30,SW,214,12.0,32.0,93,0.00,,,0.02,meteohub,2013-02-10 19:22:00,
2013-02-10 13:27:00,36.3,34.5,29.29,SW,219,12.0,27.0,93,0.00,,,0.02,meteohub,2013-02-10 19:27:00,
2013-02-10 13:32:00,36.3,34.7,29.29,SW,222,11.0,23.0,94,0.00,,,0.02,meteohub,2013-02-10 19:32:00,
2013-02-10 13:37:00,36.7,35.1,29.30,WSW,245,15.0,23.0,94,0.00,,,0.02,meteohub,2013-02-10 19:37:00,
2013-02-10 13:42:00,37.0,35.8,29.30,SW,229,19.0,23.0,95,0.00,,,0.02,meteohub,2013-02-10 19:42:00,
2013-02-10 13:48:00,37.2,36.0,29.31,SW,232,16.0,23.0,95,0.00,,,0.02,meteohub,2013-02-10 19:48:00,
2013-02-10 13:53:00,37.4,36.1,29.31,SW,236,11.0,22.0,95,0.00,,,0.02,meteohub,2013-02-10 19:53:00,
2013-02-10 13:58:00,37.8,36.7,29.32,SW,230,10.0,22.0,96,0.00,,,0.02,meteohub,2013-02-10 19:58:00,
2013-02-10 14:03:00,38.1,37.0,29.32,WNW,296,10.0,20.0,96,0.00,,,0.02,meteohub,2013-02-10 20:03:00,
2013-02-10 14:08:00,38.5,37.4,29.32,WSW,254,15.0,19.0,96,0.00,,,0.02,meteohub,2013-02-10 20:08:00,
2013-02-10 14:13:00,38.3,37.0,29.33,WNW,296,20.0,24.0,95,0.00,,,0.02,meteohub,2013-02-10 20:13:00,
2013-02-10 14:18:00,37.9,36.7,29.33,WNW,284,19.0,25.0,95,0.00,,,0.02,meteohub,2013-02-10 20:18:00,
2013-02-10 14:23:00,37.8,36.5,29.34,WNW,298,18.0,30.0,95,0.00,,,0.02,meteohub,2013-02-10 20:23:00,
2013-02-10 14:28:00,37.8,36.5,29.34,WNW,286,25.0,34.0,95,0.00,,,0.02,meteohub,2013-02-10 20:28:00,
2013-02-10 14:34:00,37.9,36.3,29.35,West,281,23.0,34.0,94,0.00,,,0.02,meteohub,2013-02-10 20:34:00,
2013-02-10 14:39:00,38.1,36.3,29.35,WNW,290,25.0,34.0,93,0.00,,,0.02,meteohub,2013-02-10 20:39:00,
2013-02-10 14:44:00,38.1,36.0,29.36,WNW,289,20.0,34.0,92,0.00,,,0.02,meteohub,2013-02-10 20:44:00,
2013-02-10 14:49:00,38.3,36.1,29.36,WNW,288,10.0,32.0,92,0.00,,,0.02,meteohub,2013-02-10 20:49:00,
2013-02-10 14:54:00,37.8,35.1,29.37,West,271,29.0,30.0,90,0.00,,,0.02,meteohub,2013-02-10 20:54:00,
2013-02-10 14:59:00,37.2,34.5,29.38,West,269,18.0,30.0,90,0.00,,,0.02,meteohub,2013-02-10 20:59:00,
2013-02-10 15:04:00,36.9,34.2,29.39,West,278,25.0,31.0,90,0.00,,,0.02,meteohub,2013-02-10 21:04:00,
2013-02-10 15:09:00,36.7,34.0,29.39,WNW,286,30.0,31.0,90,0.00,,,0.02,meteohub,2013-02-10 21:09:00,
2013-02-10 15:15:00,36.3,33.4,29.40,WNW,286,30.0,31.0,89,0.00,,,0.02,meteohub,2013-02-10 21:15:00,
2013-02-10 15:20:00,36.3,33.4,29.41,WNW,284,26.0,31.0,89,0.00,,,0.02,meteohub,2013-02-10 21:20:00,
2013-02-10 15:25:00,36.0,33.1,29.42,WNW,283,26.0,34.0,89,0.00,,,0.02,meteohub,2013-02-10 21:25:00,
2013-02-10 15:30:00,36.0,32.7,29.42,West,279,21.0,34.0,88,0.00,,,0.02,meteohub,2013-02-10 21:30:00,
2013-02-10 15:35:00,35.8,32.5,29.43,WNW,287,26.0,34.0,88,0.00,,,0.02,meteohub,2013-02-10 21:35:00,
2013-02-10 15:40:00,35.6,32.4,29.44,NW,306,23.0,34.0,88,0.00,,,0.02,meteohub,2013-02-10 21:40:00,
2013-02-10 15:45:00,35.6,32.4,29.44,WNW,284,30.0,32.0,88,0.00,,,0.02,meteohub,2013-02-10 21:45:00,
2013-02-10 15:50:00,35.4,32.0,29.45,West,261,13.0,32.0,87,0.00,,,0.02,meteohub,2013-02-10 21:50:00,
2013-02-10 15:55:00,35.4,32.0,29.46,West,281,28.0,34.0,87,0.00,,,0.02,meteohub,2013-02-10 21:55:00,
2013-02-10 16:01:00,35.2,31.5,29.46,West,269,27.0,34.0,86,0.00,,,0.02,meteohub,2013-02-10 22:01:00,
2013-02-10 16:06:00,35.1,30.9,29.47,WNW,302,25.0,34.0,85,0.00,,,0.02,meteohub,2013-02-10 22:06:00,
2013-02-10 16:11:00,35.1,30.9,29.47,WSW,238,16.0,31.0,85,0.00,,,0.02,meteohub,2013-02-10 22:11:00,
2013-02-10 16:16:00,35.1,30.4,29.47,WNW,294,27.0,32.0,83,0.00,,,0.02,meteohub,2013-02-10 22:16:00,
2013-02-10 16:21:00,35.1,29.8,29.48,WNW,290,26.0,37.0,81,0.00,,,0.02,meteohub,2013-02-10 22:21:00,
2013-02-10 16:26:00,34.9,30.0,29.49,WNW,286,17.0,37.0,82,0.00,,,0.02,meteohub,2013-02-10 22:26:00,
2013-02-10 16:31:00,34.7,29.5,29.49,WNW,288,24.0,37.0,81,0.00,,,0.02,meteohub,2013-02-10 22:31:00,
2013-02-10 16:37:00,34.5,29.3,29.50,West,280,28.0,39.0,81,0.00,,,0.02,meteohub,2013-02-10 22:37:00,
2013-02-10 16:42:00,34.3,29.1,29.51,WNW,288,25.0,39.0,81,0.00,,,0.02,meteohub,2013-02-10 22:42:00,
2013-02-10 16:47:00,34.2,28.9,29.52,West,276,29.0,38.0,81,0.00,,,0.02,meteohub,2013-02-10 22:47:00,
2013-02-10 16:52:00,34.0,29.1,29.52,WNW,296,24.0,39.0,82,0.00,,,0.02,meteohub,2013-02-10 22:52:00,
2013-02-10 16:57:00,34.0,29.1,29.52,West,264,22.0,39.0,82,0.00,,,0.02,meteohub,2013-02-10 22:57:00,
2013-02-10 17:02:00,33.8,28.9,29.53,WNW,289,24.0,39.0,82,0.00,,,0.02,meteohub,2013-02-10 23:02:00,
2013-02-10 17:07:00,33.6,28.4,29.53,WNW,299,27.0,35.0,81,0.00,,,0.02,meteohub,2013-02-10 23:07:00,
2013-02-10 17:12:00,33.6,28.0,29.54,West,280,31.0,35.0,80,0.00,,,0.02,meteohub,2013-02-10 23:12:00,
2013-02-10 17:17:00,33.6,28.0,29.55,West,274,21.0,37.0,80,0.00,,,0.02,meteohub,2013-02-10 23:17:00,
2013-02-10 17:22:00,33.6,28.0,29.55,WNW,296,21.0,37.0,80,0.00,,,0.02,meteohub,2013-02-10 23:22:00,
2013-02-10 17:27:00,33.6,28.0,29.55,WNW,294,30.0,37.0,80,0.00,,,0.02,meteohub,2013-02-10 23:27:00,
2013-02-10 17:32:00,33.4,27.9,29.56,West,274,27.0,34.0,80,0.00,,,0.02,meteohub,2013-02-10 23:32:00,
2013-02-10 17:37:00,33.6,27.9,29.56,NW,304,27.0,34.0,79,0.00,,,0.02,meteohub,2013-02-10 23:37:00,
2013-02-10 17:42:00,33.4,27.7,29.57,West,268,25.0,37.0,79,0.00,,,0.02,meteohub,2013-02-10 23:42:00,
2013-02-10 17:47:00,33.4,27.3,29.57,West,272,27.0,37.0,78,0.00,,,0.02,meteohub,2013-02-10 23:47:00,
2013-02-10 17:52:00,33.3,26.8,29.58,West,281,30.0,41.0,77,0.00,,,0.02,meteohub,2013-02-10 23:52:00,
2013-02-10 17:57:00,33.1,27.0,29.59,West,277,24.0,41.0,78,0.00,,,0.02,meteohub,2013-02-10 23:57:00,
2013-02-10 18:02:00,33.1,26.4,29.59,West,280,32.0,41.0,76,0.00,,,0.02,meteohub,2013-02-11 00:02:00,
2013-02-10 18:07:00,33.1,26.4,29.60,WNW,283,27.0,43.0,76,0.00,,,0.00,meteohub,2013-02-11 00:07:00,
2013-02-10 18:12:00,33.1,26.4,29.60,WNW,290,29.0,43.0,76,0.00,,,0.00,meteohub,2013-02-11 00:12:00,
2013-02-10 18:17:00,32.9,26.2,29.60,WNW,282,31.0,43.0,76,0.00,,,0.00,meteohub,2013-02-11 00:17:00,
2013-02-10 18:22:00,32.7,26.2,29.61,WNW,292,27.0,43.0,77,0.00,,,0.00,meteohub,2013-02-11 00:22:00,
2013-02-10 18:27:00,32.9,26.2,29.62,WNW,294,25.0,40.0,76,0.00,,,0.00,meteohub,2013-02-11 00:27:00,
2013-02-10 18:32:00,32.7,26.1,29.62,WNW,301,27.0,40.0,76,0.00,,,0.00,meteohub,2013-02-11 00:32:00,
2013-02-10 18:37:00,32.7,25.3,29.63,West,279,30.0,40.0,74,0.00,,,0.00,meteohub,2013-02-11 00:37:00,
2013-02-10 18:42:00,32.5,25.5,29.63,West,280,20.0,43.0,75,0.00,,,0.00,meteohub,2013-02-11 00:42:00,
2013-02-10 18:47:00,32.5,25.5,29.63,WNW,287,24.0,43.0,75,0.00,,,0.00,meteohub,2013-02-11 00:47:00,
2013-02-10 18:52:00,32.5,25.2,29.64,WNW,283,21.0,40.0,74,0.00,,,0.00,meteohub,2013-02-11 00:52:00,
2013-02-10 18:57:00,32.4,25.3,29.64,WNW,283,34.0,40.0,75,0.00,,,0.00,meteohub,2013-02-11 00:57:00,
2013-02-10 19:02:00,32.5,25.2,29.64,WNW,296,27.0,43.0,74,0.00,,,0.00,meteohub,2013-02-11 01:02:00,
2013-02-10 19:07:00,32.4,25.0,29.65,WNW,290,32.0,43.0,74,0.00,,,0.00,meteohub,2013-02-11 01:07:00,
2013-02-10 19:12:00,32.4,25.0,29.65,West,272,30.0,43.0,74,0.00,,,0.00,meteohub,2013-02-11 01:12:00,
2013-02-10 19:17:00,32.4,25.0,29.65,WNW,298,30.0,44.0,74,0.00,,,0.00,meteohub,2013-02-11 01:17:00,
2013-02-10 19:22:00,32.0,25.0,29.65,West,281,25.0,44.0,75,0.00,,,0.00,meteohub,2013-02-11 01:22:00,
2013-02-10 19:27:00,32.0,25.0,29.66,WNW,302,25.0,44.0,75,0.00,,,0.00,meteohub,2013-02-11 01:27:00,
2013-02-10 19:32:00,32.0,24.6,29.66,WNW,297,24.0,40.0,74,0.00,,,0.00,meteohub,2013-02-11 01:32:00,
2013-02-10 19:37:00,31.8,24.8,29.66,West,274,23.0,39.0,75,0.00,,,0.00,meteohub,2013-02-11 01:37:00,
2013-02-10 19:42:00,31.8,24.8,29.67,WNW,295,29.0,37.0,75,0.00,,,0.00,meteohub,2013-02-11 01:42:00,
2013-02-10 19:47:00,31.8,25.5,29.67,WNW,294,20.0,37.0,77,0.00,,,0.00,meteohub,2013-02-11 01:47:00,
2013-02-10 19:52:00,31.8,25.2,29.67,WNW,284,31.0,35.0,76,0.00,,,0.00,meteohub,2013-02-11 01:52:00,
2013-02-10 19:57:00,31.8,25.2,29.68,WNW,294,27.0,35.0,76,0.00,,,0.00,meteohub,2013-02-11 01:57:00,
2013-02-10 20:02:00,31.8,25.2,29.68,West,279,23.0,37.0,76,0.00,,,0.00,meteohub,2013-02-11 02:02:00,
2013-02-10 20:07:00,32.0,25.0,29.68,West,281,21.0,37.0,75,0.00,,,0.00,meteohub,2013-02-11 02:07:00,
2013-02-10 20:12:00,31.8,25.2,29.69,West,280,27.0,39.0,76,0.00,,,0.00,meteohub,2013-02-11 02:12:00,
2013-02-10 20:17:00,31.8,25.5,29.69,WNW,295,28.0,39.0,77,0.00,,,0.00,meteohub,2013-02-11 02:17:00,
2013-02-10 20:22:00,32.0,25.3,29.69,WNW,286,18.0,38.0,76,0.00,,,0.00,meteohub,2013-02-11 02:22:00,
2013-02-10 20:27:00,32.2,25.7,29.69,WNW,289,25.0,35.0,77,0.00,,,0.00,meteohub,2013-02-11 02:27:00,
2013-02-10 20:32:00,32.2,25.5,29.70,WNW,294,21.0,35.0,76,0.00,,,0.00,meteohub,2013-02-11 02:32:00,
2013-02-10 20:38:00,32.2,25.2,29.71,WNW,294,27.0,38.0,75,0.00,,,0.00,meteohub,2013-02-11 02:38:00,
2013-02-10 20:43:00,32.4,25.0,29.71,WNW,295,24.0,41.0,74,0.00,,,0.00,meteohub,2013-02-11 02:43:00,
2013-02-10 20:48:00,32.2,25.5,29.72,WSW,250,19.0,41.0,76,0.00,,,0.00,meteohub,2013-02-11 02:48:00,
2013-02-10 20:53:00,32.2,25.5,29.72,WNW,294,23.0,41.0,76,0.00,,,0.00,meteohub,2013-02-11 02:53:00,
2013-02-10 20:58:00,32.2,25.2,29.73,WNW,289,34.0,38.0,75,0.00,,,0.00,meteohub,2013-02-11 02:58:00,
2013-02-10 21:03:00,32.0,24.6,29.73,WNW,295,26.0,41.0,74,0.00,,,0.00,meteohub,2013-02-11 03:03:00,
2013-02-10 21:08:00,31.8,24.4,29.73,WNW,293,34.0,41.0,74,0.00,,,0.00,meteohub,2013-02-11 03:08:00,
2013-02-10 21:13:00,31.6,24.6,29.73,WNW,286,22.0,52.0,75,0.00,,,0.00,meteohub,2013-02-11 03:13:00,
2013-02-10 21:18:00,31.5,24.8,29.74,WNW,292,27.0,52.0,76,0.00,,,0.00,meteohub,2013-02-11 03:18:00,
2013-02-10 21:23:00,31.5,25.2,29.75,WNW,284,24.0,43.0,77,0.00,,,0.00,meteohub,2013-02-11 03:23:00,
2013-02-10 21:28:00,31.6,25.3,29.75,WSW,246,24.0,38.0,77,0.00,,,0.00,meteohub,2013-02-11 03:28:00,
2013-02-10 21:33:00,31.6,25.3,29.76,WNW,286,25.0,31.0,77,0.00,,,0.00,meteohub,2013-02-11 03:33:00,
2013-02-10 21:38:00,31.8,25.5,29.76,WNW,294,28.0,30.0,77,0.00,,,0.00,meteohub,2013-02-11 03:38:00,
2013-02-10 21:43:00,32.2,25.5,29.77,WNW,288,28.0,37.0,76,0.00,,,0.00,meteohub,2013-02-11 03:43:00,
2013-02-10 21:49:00,32.2,25.5,29.78,WNW,298,23.0,37.0,76,0.00,,,0.00,meteohub,2013-02-11 03:49:00,
2013-02-10 21:54:00,32.4,25.7,29.78,West,276,24.0,37.0,76,0.00,,,0.00,meteohub,2013-02-11 03:54:00,
2013-02-10 21:59:00,32.2,25.7,29.78,WNW,298,23.0,35.0,77,0.00,,,0.00,meteohub,2013-02-11 03:59:00,
2013-02-10 22:04:00,32.4,25.7,29.79,WNW,290,27.0,34.0,76,0.00,,,0.00,meteohub,2013-02-11 04:04:00,
2013-02-10 22:09:00,32.5,25.9,29.79,WNW,296,34.0,34.0,76,0.00,,,0.00,meteohub,2013-02-11 04:09:00,
2013-02-10 22:14:00,32.5,25.9,29.79,WNW,288,26.0,36.0,76,0.00,,,0.00,meteohub,2013-02-11 04:14:00,
2013-02-10 22:19:00,32.7,26.1,29.80,NW,311,24.0,38.0,76,0.00,,,0.00,meteohub,2013-02-11 04:19:00,
2013-02-10 22:24:00,32.7,26.1,29.80,WNW,300,24.0,39.0,76,0.00,,,0.00,meteohub,2013-02-11 04:24:00,
2013-02-10 22:29:00,32.7,26.2,29.81,WNW,288,24.0,39.0,77,0.00,,,0.00,meteohub,2013-02-11 04:29:00,
2013-02-10 22:34:00,32.7,26.6,29.81,WNW,292,25.0,38.0,78,0.00,,,0.00,meteohub,2013-02-11 04:34:00,
2013-02-10 22:39:00,32.7,26.6,29.81,WNW,292,24.0,36.0,78,0.00,,,0.00,meteohub,2013-02-11 04:39:00,
2013-02-10 22:44:00,32.9,26.4,29.82,WNW,301,25.0,37.0,77,0.00,,,0.00,meteohub,2013-02-11 04:44:00,
2013-02-10 22:50:00,32.9,26.8,29.82,WNW,288,21.0,37.0,78,0.00,,,0.00,meteohub,2013-02-11 04:50:00,
2013-02-10 22:55:00,32.7,26.6,29.83,West,279,17.0,36.0,78,0.00,,,0.00,meteohub,2013-02-11 04:55:00,
2013-02-10 23:00:00,32.7,26.6,29.83,WNW,288,32.0,36.0,78,0.00,,,0.00,meteohub,2013-02-11 05:00:00,
2013-02-10 23:01:00,32.7,26.6,29.83,WNW,293,17.0,31.0,78,0.00,,,0.00,meteohub,2013-02-11 05:01:00,
2013-02-10 23:04:00,32.7,26.6,29.83,WNW,294,25.0,31.0,78,0.00,,,0.00,meteohub,2013-02-11 05:04:00,
2013-02-10 23:09:00,32.5,26.4,29.84,WNW,296,22.0,34.0,78,0.00,,,0.00,meteohub,2013-02-11 05:09:00,
2013-02-10 23:14:00,32.5,26.4,29.83,WNW,300,29.0,34.0,78,0.00,,,0.00,meteohub,2013-02-11 05:14:00,
2013-02-10 23:19:00,32.4,26.6,29.84,NW,311,25.0,34.0,79,0.00,,,0.00,meteohub,2013-02-11 05:19:00,
2013-02-10 23:24:00,32.4,26.6,29.85,WNW,288,22.0,33.0,79,0.00,,,0.00,meteohub,2013-02-11 05:24:00,
2013-02-10 23:29:00,32.4,26.6,29.85,WNW,284,21.0,34.0,79,0.00,,,0.00,meteohub,2013-02-11 05:29:00,
2013-02-10 23:34:00,32.4,27.0,29.85,WNW,294,17.0,34.0,80,0.00,,,0.00,meteohub,2013-02-11 05:34:00,
2013-02-10 23:39:00,32.4,27.0,29.86,WNW,291,19.0,33.0,80,0.00,,,0.00,meteohub,2013-02-11 05:39:00,
2013-02-10 23:44:00,32.2,26.8,29.86,WNW,288,20.0,33.0,80,0.00,,,0.00,meteohub,2013-02-11 05:44:00,
2013-02-10 23:50:00,32.2,26.8,29.86,NW,304,17.0,29.0,80,0.00,,,0.00,meteohub,2013-02-11 05:50:00,
2013-02-10 23:55:00,32.2,27.0,29.86,WNW,289,15.0,29.0,81,0.00,,,0.00,meteohub,2013-02-11 05:55:00,